sensor_id;sensor_type;location;lat;lon;timestamp;pressure;altitude;pressure_sealevel;temperature;humidity
55277;BME280;41136;51.478;-2.610;2024-03-23T00:53:40;100802.18;;;5.48;100.00
55277;BME280;41136;51.478;-2.610;2024-03-23T00:56:05;100803.96;;;5.07;100.00
55277;BME280;41136;51.478;-2.610;2024-03-23T00:58:30;100801.85;;;5.34;100.00
55277;BME280;41136;51.478;-2.610;2024-03-23T01:00:56;100805.76;;;5.29;100.00
55277;BME280;41136;51.478;-2.610;2024-03-23T01:03:21;100801.49;;;5.12;100.00
55277;BME280;41136;51.478;-2.610;2024-03-23T01:05:47;100799.90;;;5.38;100.00
55277;BME280;41136;51.478;-2.610;2024-03-23T01:08:12;100799.35;;;5.29;100.00
55277;BME280;41136;51.478;-2.610;2024-03-23T01:10:38;100797.86;;;5.48;100.00
55277;BME280;41136;51.478;-2.610;2024-03-23T01:13:03;100792.96;;;5.32;100.00
55277;BME280;41136;51.478;-2.610;2024-03-23T01:15:28;100796.42;;;5.57;100.00
55277;BME280;41136;51.478;-2.610;2024-03-23T01:17:54;100789.96;;;5.34;100.00
55277;BME280;41136;51.478;-2.610;2024-03-23T01:20:19;100789.30;;;4.77;100.00
55277;BME280;41136;51.478;-2.610;2024-03-23T01:22:45;100782.27;;;5.41;100.00
55277;BME280;41136;51.478;-2.610;2024-03-23T01:25:10;100782.88;;;5.20;100.00
55277;BME280;41136;51.478;-2.610;2024-03-23T01:27:35;100782.20;;;5.02;100.00
55277;BME280;41136;51.478;-2.610;2024-03-23T01:30:01;100781.04;;;5.09;100.00
55277;BME280;41136;51.478;-2.610;2024-03-23T01:32:26;100775.11;;;4.56;100.00
55277;BME280;41136;51.478;-2.610;2024-03-23T01:34:52;100777.24;;;4.86;100.00
55277;BME280;41136;51.478;-2.610;2024-03-23T01:37:17;100775.67;;;5.11;100.00
55277;BME280;41136;51.478;-2.610;2024-03-23T01:39:43;100771.85;;;5.04;100.00
55277;BME280;41136;51.478;-2.610;2024-03-23T01:42:08;100773.73;;;4.79;100.00
55277;BME280;41136;51.478;-2.610;2024-03-23T01:44:34;100774.59;;;4.93;100.00
55277;BME280;41136;51.478;-2.610;2024-03-23T01:46:59;100767.56;;;4.75;100.00
55277;BME280;41136;51.478;-2.610;2024-03-23T01:49:24;100765.49;;;4.53;100.00
55277;BME280;41136;51.478;-2.610;2024-03-23T01:51:50;100758.91;;;4.81;100.00
55277;BME280;41136;51.478;-2.610;2024-03-23T01:54:15;100762.05;;;4.25;100.00
55277;BME280;41136;51.478;-2.610;2024-03-23T01:56:41;100757.22;;;4.49;100.00
55277;BME280;41136;51.478;-2.610;2024-03-23T01:59:06;100754.93;;;4.52;100.00
55277;BME280;41136;51.478;-2.610;2024-03-23T02:01:32;100751.68;;;4.68;100.00
55277;BME280;41136;51.478;-2.610;2024-03-23T02:03:57;100749.98;;;4.74;100.00
55277;BME280;41136;51.478;-2.610;2024-03-23T02:16:21;100753.76;;;4.54;100.00
55277;BME280;41136;51.478;-2.610;2024-03-23T02:18:46;100753.47;;;4.48;100.00
55277;BME280;41136;51.478;-2.610;2024-03-23T02:21:12;100753.04;;;4.34;100.00
55277;BME280;41136;51.478;-2.610;2024-03-23T02:23:37;100754.24;;;4.75;100.00
55277;BME280;41136;51.478;-2.610;2024-03-23T02:26:03;100753.65;;;5.12;100.00
55277;BME280;41136;51.478;-2.610;2024-03-23T02:28:28;100749.39;;;4.84;100.00
55277;BME280;41136;51.478;-2.610;2024-03-23T02:30:54;100749.71;;;4.42;100.00
55277;BME280;41136;51.478;-2.610;2024-03-23T02:33:19;100754.18;;;4.39;100.00
55277;BME280;41136;51.478;-2.610;2024-03-23T02:35:45;100747.17;;;4.74;100.00
55277;BME280;41136;51.478;-2.610;2024-03-23T02:38:10;100746.71;;;4.24;100.00
55277;BME280;41136;51.478;-2.610;2024-03-23T02:40:35;100740.69;;;5.02;100.00
55277;BME280;41136;51.478;-2.610;2024-03-23T02:43:01;100741.78;;;4.65;100.00
55277;BME280;41136;51.478;-2.610;2024-03-23T02:45:26;100748.86;;;4.42;100.00
55277;BME280;41136;51.478;-2.610;2024-03-23T02:47:51;100739.81;;;3.75;100.00
55277;BME280;41136;51.478;-2.610;2024-03-23T02:50:17;100742.36;;;4.21;100.00
55277;BME280;41136;51.478;-2.610;2024-03-23T02:52:42;100737.54;;;4.43;100.00
55277;BME280;41136;51.478;-2.610;2024-03-23T02:55:08;100744.05;;;4.66;100.00
55277;BME280;41136;51.478;-2.610;2024-03-23T02:57:33;100745.26;;;4.24;100.00
55277;BME280;41136;51.478;-2.610;2024-03-23T02:59:58;100740.52;;;4.71;100.00
55277;BME280;41136;51.478;-2.610;2024-03-23T03:02:24;100740.53;;;4.47;100.00
55277;BME280;41136;51.478;-2.610;2024-03-23T03:04:49;100738.66;;;4.68;100.00
55277;BME280;41136;51.478;-2.610;2024-03-23T03:07:15;100735.95;;;4.59;100.00
55277;BME280;41136;51.478;-2.610;2024-03-23T03:09:40;100738.85;;;4.35;100.00
55277;BME280;41136;51.478;-2.610;2024-03-23T03:12:06;100740.09;;;4.34;100.00
55277;BME280;41136;51.478;-2.610;2024-03-23T03:14:31;100737.65;;;4.50;100.00
55277;BME280;41136;51.478;-2.610;2024-03-23T03:16:56;100730.39;;;4.25;100.00
55277;BME280;41136;51.478;-2.610;2024-03-23T03:19:21;100730.76;;;4.86;100.00
55277;BME280;41136;51.478;-2.610;2024-03-23T03:21:47;100723.85;;;4.39;100.00
55277;BME280;41136;51.478;-2.610;2024-03-23T03:24:12;100727.38;;;3.86;100.00
55277;BME280;41136;51.478;-2.610;2024-03-23T03:26:38;100724.45;;;3.97;100.00
55277;BME280;41136;51.478;-2.610;2024-03-23T03:29:03;100722.85;;;4.02;100.00
55277;BME280;41136;51.478;-2.610;2024-03-23T03:31:29;100722.93;;;3.67;100.00
55277;BME280;41136;51.478;-2.610;2024-03-23T03:33:54;100721.16;;;4.01;100.00
55277;BME280;41136;51.478;-2.610;2024-03-23T03:36:19;100714.88;;;3.70;100.00
55277;BME280;41136;51.478;-2.610;2024-03-23T03:38:45;100713.00;;;3.98;100.00
55277;BME280;41136;51.478;-2.610;2024-03-23T03:41:10;100710.31;;;4.25;100.00
55277;BME280;41136;51.478;-2.610;2024-03-23T03:43:36;100712.97;;;4.06;100.00
55277;BME280;41136;51.478;-2.610;2024-03-23T03:46:02;100718.21;;;3.80;100.00
55277;BME280;41136;51.478;-2.610;2024-03-23T03:48:27;100716.52;;;4.13;100.00
55277;BME280;41136;51.478;-2.610;2024-03-23T03:50:52;100719.19;;;4.46;100.00
55277;BME280;41136;51.478;-2.610;2024-03-23T03:53:17;100717.72;;;4.24;100.00
55277;BME280;41136;51.478;-2.610;2024-03-23T03:55:43;100712.45;;;4.75;100.00
55277;BME280;41136;51.478;-2.610;2024-03-23T03:58:08;100708.76;;;3.98;100.00
55277;BME280;41136;51.478;-2.610;2024-03-23T04:00:33;100698.84;;;3.82;100.00
55277;BME280;41136;51.478;-2.610;2024-03-23T04:02:59;100703.97;;;4.61;100.00
55277;BME280;41136;51.478;-2.610;2024-03-23T04:05:24;100704.88;;;4.67;100.00
55277;BME280;41136;51.478;-2.610;2024-03-23T04:07:50;100703.89;;;3.84;100.00
55277;BME280;41136;51.478;-2.610;2024-03-23T04:10:15;100708.67;;;4.12;100.00
55277;BME280;41136;51.478;-2.610;2024-03-23T04:12:41;100707.88;;;4.14;100.00
55277;BME280;41136;51.478;-2.610;2024-03-23T04:15:06;100699.64;;;4.26;100.00
55277;BME280;41136;51.478;-2.610;2024-03-23T04:17:32;100699.19;;;4.31;100.00
55277;BME280;41136;51.478;-2.610;2024-03-23T04:19:57;100698.03;;;4.51;100.00
55277;BME280;41136;51.478;-2.610;2024-03-23T04:22:22;100698.97;;;4.47;100.00
55277;BME280;41136;51.478;-2.610;2024-03-23T04:24:48;100700.31;;;4.48;100.00
55277;BME280;41136;51.478;-2.610;2024-03-23T04:27:13;100701.78;;;4.21;100.00
55277;BME280;41136;51.478;-2.610;2024-03-23T04:29:39;100703.53;;;4.32;100.00
55277;BME280;41136;51.478;-2.610;2024-03-23T04:32:05;100695.99;;;4.76;100.00
55277;BME280;41136;51.478;-2.610;2024-03-23T04:34:29;100697.58;;;4.43;100.00
55277;BME280;41136;51.478;-2.610;2024-03-23T04:36:55;100691.38;;;4.50;100.00
55277;BME280;41136;51.478;-2.610;2024-03-23T04:39:20;100696.14;;;4.46;100.00
55277;BME280;41136;51.478;-2.610;2024-03-23T04:41:46;100688.39;;;4.55;100.00
55277;BME280;41136;51.478;-2.610;2024-03-23T04:44:11;100688.81;;;4.28;100.00
55277;BME280;41136;51.478;-2.610;2024-03-23T04:46:36;100687.18;;;4.38;100.00
55277;BME280;41136;51.478;-2.610;2024-03-23T04:49:02;100681.92;;;4.97;100.00
55277;BME280;41136;51.478;-2.610;2024-03-23T04:51:27;100682.42;;;4.71;100.00
55277;BME280;41136;51.478;-2.610;2024-03-23T04:53:53;100682.86;;;4.87;100.00
55277;BME280;41136;51.478;-2.610;2024-03-23T04:56:19;100681.51;;;4.58;100.00
55277;BME280;41136;51.478;-2.610;2024-03-23T04:58:44;100672.33;;;4.88;100.00
55277;BME280;41136;51.478;-2.610;2024-03-23T05:01:10;100670.24;;;4.93;100.00
55277;BME280;41136;51.478;-2.610;2024-03-23T05:03:34;100670.40;;;4.75;100.00
55277;BME280;41136;51.478;-2.610;2024-03-23T05:06:00;100669.63;;;4.82;100.00
55277;BME280;41136;51.478;-2.610;2024-03-23T05:08:25;100668.92;;;4.36;100.00
55277;BME280;41136;51.478;-2.610;2024-03-23T05:10:51;100665.44;;;4.27;100.00
55277;BME280;41136;51.478;-2.610;2024-03-23T05:13:16;100668.75;;;4.02;100.00
55277;BME280;41136;51.478;-2.610;2024-03-23T05:15:42;100664.48;;;4.37;100.00
55277;BME280;41136;51.478;-2.610;2024-03-23T05:18:07;100664.77;;;4.31;100.00
55277;BME280;41136;51.478;-2.610;2024-03-23T05:28:34;100644.76;;;4.98;100.00
55277;BME280;41136;51.478;-2.610;2024-03-23T05:31:00;100638.17;;;4.75;100.00
55277;BME280;41136;51.478;-2.610;2024-03-23T05:33:25;100637.49;;;3.90;100.00
55277;BME280;41136;51.478;-2.610;2024-03-23T05:35:57;100631.27;;;3.72;100.00
55277;BME280;41136;51.478;-2.610;2024-03-23T05:38:16;100626.24;;;4.79;100.00
55277;BME280;41136;51.478;-2.610;2024-03-23T05:40:41;100633.86;;;4.14;100.00
55277;BME280;41136;51.478;-2.610;2024-03-23T05:43:07;100632.94;;;3.85;100.00
55277;BME280;41136;51.478;-2.610;2024-03-23T05:45:32;100633.59;;;3.65;100.00
55277;BME280;41136;51.478;-2.610;2024-03-23T05:47:57;100628.27;;;3.60;100.00
55277;BME280;41136;51.478;-2.610;2024-03-23T05:50:23;100630.64;;;3.49;100.00
55277;BME280;41136;51.478;-2.610;2024-03-23T05:52:48;100624.10;;;3.57;100.00
55277;BME280;41136;51.478;-2.610;2024-03-23T05:55:14;100620.88;;;3.52;100.00
55277;BME280;41136;51.478;-2.610;2024-03-23T05:57:39;100628.12;;;3.49;100.00
55277;BME280;41136;51.478;-2.610;2024-03-23T06:00:06;100627.06;;;3.22;100.00
55277;BME280;41136;51.478;-2.610;2024-03-23T06:02:30;100631.92;;;3.19;100.00
55277;BME280;41136;51.478;-2.610;2024-03-23T06:04:55;100630.30;;;3.59;100.00
55277;BME280;41136;51.478;-2.610;2024-03-23T06:07:21;100623.67;;;3.95;100.00
55277;BME280;41136;51.478;-2.610;2024-03-23T06:09:46;100623.34;;;3.76;100.00
55277;BME280;41136;51.478;-2.610;2024-03-23T06:12:11;100622.80;;;3.90;100.00
55277;BME280;41136;51.478;-2.610;2024-03-23T06:14:37;100622.39;;;3.91;100.00
55277;BME280;41136;51.478;-2.610;2024-03-23T06:17:02;100623.17;;;3.84;100.00
55277;BME280;41136;51.478;-2.610;2024-03-23T06:19:28;100624.35;;;3.86;100.00
55277;BME280;41136;51.478;-2.610;2024-03-23T06:21:53;100625.65;;;3.66;100.00
55277;BME280;41136;51.478;-2.610;2024-03-23T06:24:18;100633.27;;;3.75;100.00
55277;BME280;41136;51.478;-2.610;2024-03-23T06:31:53;100634.86;;;3.66;100.00
55277;BME280;41136;51.478;-2.610;2024-03-23T06:34:14;100630.69;;;3.75;100.00
55277;BME280;41136;51.478;-2.610;2024-03-23T06:36:39;100630.46;;;4.07;100.00
55277;BME280;41136;51.478;-2.610;2024-03-23T06:39:05;100617.88;;;4.39;100.00
55277;BME280;41136;51.478;-2.610;2024-03-23T06:41:30;100617.60;;;4.69;100.00
55277;BME280;41136;51.478;-2.610;2024-03-23T06:43:55;100612.88;;;4.37;100.00
55277;BME280;41136;51.478;-2.610;2024-03-23T06:46:21;100614.45;;;4.69;100.00
55277;BME280;41136;51.478;-2.610;2024-03-23T06:48:46;100607.03;;;4.89;100.00
55277;BME280;41136;51.478;-2.610;2024-03-23T06:51:12;100593.52;;;4.20;100.00
55277;BME280;41136;51.478;-2.610;2024-03-23T06:53:37;100595.54;;;4.32;100.00
55277;BME280;41136;51.478;-2.610;2024-03-23T06:56:03;100586.70;;;3.99;100.00
55277;BME280;41136;51.478;-2.610;2024-03-23T06:58:28;100584.00;;;4.44;100.00
55277;BME280;41136;51.478;-2.610;2024-03-23T07:00:53;100584.87;;;4.86;100.00
55277;BME280;41136;51.478;-2.610;2024-03-23T07:03:20;100580.51;;;4.39;100.00
55277;BME280;41136;51.478;-2.610;2024-03-23T07:05:44;100584.02;;;3.73;100.00
55277;BME280;41136;51.478;-2.610;2024-03-23T07:08:10;100588.12;;;4.19;100.00
55277;BME280;41136;51.478;-2.610;2024-03-23T07:10:37;100578.77;;;4.14;100.00
55277;BME280;41136;51.478;-2.610;2024-03-23T07:13:00;100574.11;;;4.23;100.00
55277;BME280;41136;51.478;-2.610;2024-03-23T07:15:25;100576.42;;;4.59;100.00
55277;BME280;41136;51.478;-2.610;2024-03-23T07:17:51;100567.27;;;4.31;100.00
55277;BME280;41136;51.478;-2.610;2024-03-23T07:20:16;100568.27;;;4.32;100.00
55277;BME280;41136;51.478;-2.610;2024-03-23T07:22:41;100569.27;;;5.05;100.00
55277;BME280;41136;51.478;-2.610;2024-03-23T07:25:07;100566.39;;;4.19;100.00
55277;BME280;41136;51.478;-2.610;2024-03-23T07:27:33;100567.95;;;4.78;100.00
55277;BME280;41136;51.478;-2.610;2024-03-23T07:29:58;100566.77;;;4.34;100.00
55277;BME280;41136;51.478;-2.610;2024-03-23T07:32:23;100566.87;;;4.67;100.00
55277;BME280;41136;51.478;-2.610;2024-03-23T07:34:49;100565.95;;;5.11;100.00
55277;BME280;41136;51.478;-2.610;2024-03-23T07:37:14;100568.75;;;4.82;100.00
55277;BME280;41136;51.478;-2.610;2024-03-23T07:39:39;100572.04;;;4.95;100.00
55277;BME280;41136;51.478;-2.610;2024-03-23T07:42:05;100579.82;;;4.96;100.00
55277;BME280;41136;51.478;-2.610;2024-03-23T07:44:30;100575.45;;;4.63;100.00
55277;BME280;41136;51.478;-2.610;2024-03-23T07:46:55;100568.97;;;5.39;100.00
55277;BME280;41136;51.478;-2.610;2024-03-23T07:49:20;100568.54;;;4.30;100.00
55277;BME280;41136;51.478;-2.610;2024-03-23T07:51:46;100568.07;;;4.83;100.00
55277;BME280;41136;51.478;-2.610;2024-03-23T07:54:11;100574.58;;;4.59;100.00
55277;BME280;41136;51.478;-2.610;2024-03-23T07:56:36;100557.35;;;4.51;100.00
55277;BME280;41136;51.478;-2.610;2024-03-23T07:59:02;100554.38;;;4.82;100.00
55277;BME280;41136;51.478;-2.610;2024-03-23T08:01:27;100553.73;;;5.12;100.00
55277;BME280;41136;51.478;-2.610;2024-03-23T08:03:53;100545.85;;;5.38;100.00
55277;BME280;41136;51.478;-2.610;2024-03-23T08:06:20;100555.33;;;5.37;100.00
55277;BME280;41136;51.478;-2.610;2024-03-23T08:08:47;100542.99;;;5.53;100.00
55277;BME280;41136;51.478;-2.610;2024-03-23T08:11:12;100549.61;;;4.95;100.00
55277;BME280;41136;51.478;-2.610;2024-03-23T08:13:40;100544.94;;;5.35;100.00
55277;BME280;41136;51.478;-2.610;2024-03-23T08:16:01;100548.40;;;5.57;100.00
55277;BME280;41136;51.478;-2.610;2024-03-23T08:18:25;100536.58;;;5.95;100.00
55277;BME280;41136;51.478;-2.610;2024-03-23T08:20:55;100530.76;;;5.66;100.00
55277;BME280;41136;51.478;-2.610;2024-03-23T08:23:19;100537.44;;;5.23;100.00
55277;BME280;41136;51.478;-2.610;2024-03-23T08:25:41;100529.89;;;5.32;100.00
55277;BME280;41136;51.478;-2.610;2024-03-23T08:28:07;100529.45;;;5.54;100.00
55277;BME280;41136;51.478;-2.610;2024-03-23T08:30:34;100527.68;;;5.11;100.00
55277;BME280;41136;51.478;-2.610;2024-03-23T08:32:57;100525.33;;;4.89;100.00
55277;BME280;41136;51.478;-2.610;2024-03-23T08:35:23;100524.21;;;5.18;100.00
55277;BME280;41136;51.478;-2.610;2024-03-23T08:37:48;100524.73;;;5.64;100.00
55277;BME280;41136;51.478;-2.610;2024-03-23T08:40:14;100521.66;;;5.46;100.00
55277;BME280;41136;51.478;-2.610;2024-03-23T08:42:39;100522.21;;;5.53;100.00
55277;BME280;41136;51.478;-2.610;2024-03-23T08:45:05;100510.54;;;5.85;100.00
55277;BME280;41136;51.478;-2.610;2024-03-23T08:47:30;100503.30;;;5.94;100.00
55277;BME280;41136;51.478;-2.610;2024-03-23T08:49:55;100508.37;;;6.37;100.00
55277;BME280;41136;51.478;-2.610;2024-03-23T08:52:20;100509.97;;;6.31;100.00
55277;BME280;41136;51.478;-2.610;2024-03-23T08:54:46;100511.67;;;6.66;100.00
55277;BME280;41136;51.478;-2.610;2024-03-23T08:57:11;100516.78;;;6.93;100.00
55277;BME280;41136;51.478;-2.610;2024-03-23T08:59:38;100517.27;;;6.74;100.00
55277;BME280;41136;51.478;-2.610;2024-03-23T09:02:02;100517.73;;;6.39;100.00
55277;BME280;41136;51.478;-2.610;2024-03-23T09:04:27;100516.20;;;6.55;100.00
55277;BME280;41136;51.478;-2.610;2024-03-23T09:06:53;100505.71;;;6.55;100.00
55277;BME280;41136;51.478;-2.610;2024-03-23T09:09:18;100512.26;;;6.21;100.00
55277;BME280;41136;51.478;-2.610;2024-03-23T09:11:43;100503.91;;;6.05;100.00
55277;BME280;41136;51.478;-2.610;2024-03-23T09:14:09;100497.33;;;7.17;100.00
55277;BME280;41136;51.478;-2.610;2024-03-23T09:16:34;100501.96;;;6.52;99.80
55277;BME280;41136;51.478;-2.610;2024-03-23T09:19:00;100498.29;;;6.82;99.05
55277;BME280;41136;51.478;-2.610;2024-03-23T09:21:25;100489.29;;;6.84;99.62
55277;BME280;41136;51.478;-2.610;2024-03-23T09:23:50;100485.89;;;7.09;99.70
55277;BME280;41136;51.478;-2.610;2024-03-23T09:26:15;100482.75;;;6.70;99.62
55277;BME280;41136;51.478;-2.610;2024-03-23T09:28:41;100489.30;;;7.10;99.42
55277;BME280;41136;51.478;-2.610;2024-03-23T09:31:07;100486.22;;;6.64;99.92
55277;BME280;41136;51.478;-2.610;2024-03-23T09:33:32;100491.36;;;6.30;100.00
55277;BME280;41136;51.478;-2.610;2024-03-23T09:35:57;100490.74;;;6.51;100.00
55277;BME280;41136;51.478;-2.610;2024-03-23T09:38:23;100484.77;;;6.50;100.00
55277;BME280;41136;51.478;-2.610;2024-03-23T09:40:52;100474.15;;;6.18;100.00
55277;BME280;41136;51.478;-2.610;2024-03-23T09:43:13;100472.43;;;6.57;100.00
55277;BME280;41136;51.478;-2.610;2024-03-23T09:45:39;100466.89;;;6.64;99.70
55277;BME280;41136;51.478;-2.610;2024-03-23T09:48:04;100459.98;;;6.37;99.32
55277;BME280;41136;51.478;-2.610;2024-03-23T09:50:29;100464.81;;;6.75;99.38
55277;BME280;41136;51.478;-2.610;2024-03-23T09:52:54;100460.29;;;6.45;100.00
55277;BME280;41136;51.478;-2.610;2024-03-23T09:55:20;100464.53;;;6.74;99.83
55277;BME280;41136;51.478;-2.610;2024-03-23T09:57:45;100451.16;;;6.63;99.14
55277;BME280;41136;51.478;-2.610;2024-03-23T10:00:11;100449.35;;;6.45;98.92
55277;BME280;41136;51.478;-2.610;2024-03-23T10:02:37;100443.31;;;6.99;99.69
55277;BME280;41136;51.478;-2.610;2024-03-23T10:05:01;100443.60;;;6.88;99.52
55277;BME280;41136;51.478;-2.610;2024-03-23T10:07:26;100448.61;;;6.33;100.00
55277;BME280;41136;51.478;-2.610;2024-03-23T10:09:52;100448.11;;;6.23;100.00
55277;BME280;41136;51.478;-2.610;2024-03-23T10:12:18;100439.71;;;6.83;100.00
55277;BME280;41136;51.478;-2.610;2024-03-23T10:14:43;100441.27;;;7.12;100.00
55277;BME280;41136;51.478;-2.610;2024-03-23T10:17:13;100442.50;;;7.01;100.00
55277;BME280;41136;51.478;-2.610;2024-03-23T10:19:33;100441.81;;;7.31;100.00
55277;BME280;41136;51.478;-2.610;2024-03-23T10:21:59;100430.49;;;7.50;100.00
55277;BME280;41136;51.478;-2.610;2024-03-23T10:24:24;100439.53;;;7.61;100.00
55277;BME280;41136;51.478;-2.610;2024-03-23T10:26:55;100428.02;;;7.65;98.55
55277;BME280;41136;51.478;-2.610;2024-03-23T10:29:17;100424.45;;;8.00;98.64
55277;BME280;41136;51.478;-2.610;2024-03-23T10:31:40;100429.31;;;8.13;97.46
55277;BME280;41136;51.478;-2.610;2024-03-23T10:34:06;100424.22;;;7.41;97.02
55277;BME280;41136;51.478;-2.610;2024-03-23T10:36:31;100429.74;;;7.81;96.79
55277;BME280;41136;51.478;-2.610;2024-03-23T10:38:56;100426.89;;;7.88;95.25
55277;BME280;41136;51.478;-2.610;2024-03-23T10:41:22;100430.45;;;8.26;94.60
55277;BME280;41136;51.478;-2.610;2024-03-23T10:43:49;100426.01;;;7.87;94.05
55277;BME280;41136;51.478;-2.610;2024-03-23T10:46:12;100421.54;;;7.85;96.19
55277;BME280;41136;51.478;-2.610;2024-03-23T10:48:38;100414.18;;;7.05;98.60
55277;BME280;41136;51.478;-2.610;2024-03-23T10:51:03;100417.29;;;6.78;100.00
55277;BME280;41136;51.478;-2.610;2024-03-23T10:53:28;100406.92;;;6.80;100.00
55277;BME280;41136;51.478;-2.610;2024-03-23T10:55:54;100405.98;;;7.01;100.00
55277;BME280;41136;51.478;-2.610;2024-03-23T10:58:19;100418.55;;;6.03;100.00
55277;BME280;41136;51.478;-2.610;2024-03-23T11:00:44;100442.28;;;5.84;100.00
55277;BME280;41136;51.478;-2.610;2024-03-23T11:05:35;100443.17;;;4.62;100.00
55277;BME280;41136;51.478;-2.610;2024-03-23T11:08:00;100423.81;;;4.49;100.00
55277;BME280;41136;51.478;-2.610;2024-03-23T11:10:27;100416.69;;;4.66;100.00
55277;BME280;41136;51.478;-2.610;2024-03-23T11:12:51;100414.68;;;5.27;100.00
55277;BME280;41136;51.478;-2.610;2024-03-23T11:15:16;100412.12;;;5.12;100.00
55277;BME280;41136;51.478;-2.610;2024-03-23T11:17:42;100410.11;;;5.50;100.00
55277;BME280;41136;51.478;-2.610;2024-03-23T11:20:08;100405.61;;;5.40;100.00
55277;BME280;41136;51.478;-2.610;2024-03-23T11:22:39;100397.41;;;5.26;100.00
55277;BME280;41136;51.478;-2.610;2024-03-23T11:24:58;100388.94;;;5.45;100.00
55277;BME280;41136;51.478;-2.610;2024-03-23T11:27:23;100385.49;;;5.49;100.00
55277;BME280;41136;51.478;-2.610;2024-03-23T11:29:49;100374.97;;;5.90;100.00
55277;BME280;41136;51.478;-2.610;2024-03-23T11:32:14;100373.22;;;6.28;100.00
55277;BME280;41136;51.478;-2.610;2024-03-23T11:34:39;100372.24;;;6.47;100.00
55277;BME280;41136;51.478;-2.610;2024-03-23T11:37:05;100375.51;;;6.38;100.00
55277;BME280;41136;51.478;-2.610;2024-03-23T11:39:30;100381.11;;;6.63;100.00
55277;BME280;41136;51.478;-2.610;2024-03-23T11:41:56;100384.46;;;6.17;100.00
55277;BME280;41136;51.478;-2.610;2024-03-23T11:44:22;100378.20;;;6.58;100.00
55277;BME280;41136;51.478;-2.610;2024-03-23T11:46:46;100382.04;;;6.20;100.00
55277;BME280;41136;51.478;-2.610;2024-03-23T11:51:36;100375.60;;;6.15;100.00
55277;BME280;41136;51.478;-2.610;2024-03-23T11:54:07;100368.41;;;6.05;100.00
55277;BME280;41136;51.478;-2.610;2024-03-23T11:56:27;100365.70;;;6.46;100.00
55277;BME280;41136;51.478;-2.610;2024-03-23T11:58:52;100375.01;;;6.70;100.00
55277;BME280;41136;51.478;-2.610;2024-03-23T12:01:18;100369.99;;;6.56;100.00
55277;BME280;41136;51.478;-2.610;2024-03-23T12:03:44;100363.98;;;6.71;100.00
55277;BME280;41136;51.478;-2.610;2024-03-23T12:06:09;100373.13;;;6.26;100.00
55277;BME280;41136;51.478;-2.610;2024-03-23T12:08:35;100366.37;;;6.34;100.00
55277;BME280;41136;51.478;-2.610;2024-03-23T12:11:05;100369.48;;;6.23;100.00
55277;BME280;41136;51.478;-2.610;2024-03-23T12:13:25;100368.81;;;6.36;100.00
55277;BME280;41136;51.478;-2.610;2024-03-23T12:15:50;100366.72;;;5.85;100.00
55277;BME280;41136;51.478;-2.610;2024-03-23T12:18:15;100364.09;;;5.47;100.00
55277;BME280;41136;51.478;-2.610;2024-03-23T12:20:41;100359.60;;;5.66;100.00
55277;BME280;41136;51.478;-2.610;2024-03-23T12:23:08;100357.38;;;5.11;100.00
55277;BME280;41136;51.478;-2.610;2024-03-23T12:25:31;100355.66;;;5.42;100.00
55277;BME280;41136;51.478;-2.610;2024-03-23T12:27:58;100359.46;;;5.14;100.00
55277;BME280;41136;51.478;-2.610;2024-03-23T12:30:22;100347.51;;;5.26;100.00
55277;BME280;41136;51.478;-2.610;2024-03-23T12:32:48;100354.60;;;5.21;100.00
55277;BME280;41136;51.478;-2.610;2024-03-23T12:35:13;100349.89;;;5.30;100.00
55277;BME280;41136;51.478;-2.610;2024-03-23T12:37:38;100350.14;;;4.99;100.00
55277;BME280;41136;51.478;-2.610;2024-03-23T12:40:05;100345.83;;;5.50;100.00
55277;BME280;41136;51.478;-2.610;2024-03-23T12:42:29;100343.85;;;5.77;100.00
55277;BME280;41136;51.478;-2.610;2024-03-23T12:44:54;100346.10;;;5.29;100.00
55277;BME280;41136;51.478;-2.610;2024-03-23T12:47:19;100342.66;;;5.38;100.00
55277;BME280;41136;51.478;-2.610;2024-03-23T12:49:45;100342.97;;;5.67;100.00
55277;BME280;41136;51.478;-2.610;2024-03-23T12:52:10;100335.86;;;5.96;100.00
55277;BME280;41136;51.478;-2.610;2024-03-23T12:54:36;100341.52;;;6.12;100.00
55277;BME280;41136;51.478;-2.610;2024-03-23T12:57:01;100341.57;;;6.34;100.00
55277;BME280;41136;51.478;-2.610;2024-03-23T12:59:28;100332.69;;;6.31;100.00
55277;BME280;41136;51.478;-2.610;2024-03-23T13:01:52;100327.62;;;6.50;100.00
55277;BME280;41136;51.478;-2.610;2024-03-23T13:04:17;100325.00;;;6.49;100.00
55277;BME280;41136;51.478;-2.610;2024-03-23T13:06:42;100319.37;;;6.47;100.00
55277;BME280;41136;51.478;-2.610;2024-03-23T13:09:08;100315.57;;;6.40;100.00
55277;BME280;41136;51.478;-2.610;2024-03-23T13:11:33;100315.08;;;6.30;100.00
55277;BME280;41136;51.478;-2.610;2024-03-23T13:13:59;100310.07;;;6.21;100.00
55277;BME280;41136;51.478;-2.610;2024-03-23T13:16:24;100315.66;;;6.33;100.00
55277;BME280;41136;51.478;-2.610;2024-03-23T13:18:50;100306.63;;;6.48;100.00
55277;BME280;41136;51.478;-2.610;2024-03-23T13:21:15;100307.83;;;6.79;100.00
55277;BME280;41136;51.478;-2.610;2024-03-23T13:23:40;100299.02;;;6.38;100.00
55277;BME280;41136;51.478;-2.610;2024-03-23T13:26:05;100304.43;;;6.24;100.00
55277;BME280;41136;51.478;-2.610;2024-03-23T13:28:31;100309.99;;;6.17;100.00
55277;BME280;41136;51.478;-2.610;2024-03-23T13:30:56;100306.13;;;6.49;99.48
55277;BME280;41136;51.478;-2.610;2024-03-23T13:33:22;100304.87;;;6.24;98.55
55277;BME280;41136;51.478;-2.610;2024-03-23T13:35:50;100296.73;;;5.90;99.14
55277;BME280;41136;51.478;-2.610;2024-03-23T13:38:12;100304.26;;;6.36;100.00
55277;BME280;41136;51.478;-2.610;2024-03-23T13:40:37;100301.82;;;6.26;97.27
55277;BME280;41136;51.478;-2.610;2024-03-23T13:43:03;100295.32;;;6.19;92.16
55277;BME280;41136;51.478;-2.610;2024-03-23T13:45:28;100286.14;;;6.96;90.53
55277;BME280;41136;51.478;-2.610;2024-03-23T13:47:53;100277.78;;;6.83;88.84
55277;BME280;41136;51.478;-2.610;2024-03-23T13:50:19;100279.50;;;6.81;87.19